Time;durP1;ratioP1;P1;durP2;ratioP2;P2;SDS_P1;SDS_P2;PMS_P1;PMS_P2;Temp;Humidity;BMP_temperature;BMP_pressure;BME280_temperature;BME280_humidity;BME280_pressure;Samples;Min_cycle;Max_cycle;Signal;HPM_P1;HPM_P2
2023/04/11 00:00:50;;;;;;;4.47;1.43;;;;;;;;;;5056961;28;20045;-80
2023/04/11 00:03:16;;;;;;;5.77;1.00;;;;;;;;;;5056829;28;20048;-79
2023/04/11 00:05:50;;;;;;;2.47;1.10;;;;;;;;;;5054528;28;20026;-80
2023/04/11 00:08:16;;;;;;;4.70;1.10;;;;;;;;;;5056732;28;20049;-80
2023/04/11 00:10:42;;;;;;;4.53;1.13;;;;;;;;;;5056094;28;20028;-79
2023/04/11 00:13:09;;;;;;;7.90;1.30;;;;;;;;;;5055910;28;20029;-79
2023/04/11 00:15:36;;;;;;;7.27;1.47;;;;;;;;;;5044075;28;20022;-80
2023/04/11 00:18:02;;;;;;;8.40;1.90;;;;;;;;;;5042798;28;20027;-79
2023/04/11 00:20:28;;;;;;;5.07;1.47;;;;;;;;;;5055089;28;20048;-79
2023/04/11 00:22:57;;;;;;;7.13;1.40;;;;;;;;;;5056289;28;20025;-79
2023/04/11 00:25:23;;;;;;;11.70;1.90;;;;;;;;;;5057398;28;20052;-80
2023/04/11 00:27:49;;;;;;;6.47;1.27;;;;;;;;;;5058667;28;20044;-79
2023/04/11 00:30:18;;;;;;;11.53;1.60;;;;;;;;;;5057011;28;20105;-80
2023/04/11 00:32:45;;;;;;;6.77;1.43;;;;;;;;;;5056946;28;20010;-80
2023/04/11 00:35:11;;;;;;;4.50;1.50;;;;;;;;;;5057446;28;20022;-79
2023/04/11 00:37:37;;;;;;;7.00;1.50;;;;;;;;;;5054759;28;20041;-80
2023/04/11 00:40:05;;;;;;;6.47;1.47;;;;;;;;;;5055625;28;20034;-80
2023/04/11 00:42:34;;;;;;;12.33;2.17;;;;;;;;;;5042021;28;20006;-79
2023/04/11 00:45:00;;;;;;;12.83;1.90;;;;;;;;;;5042329;28;20021;-80
2023/04/11 00:47:26;;;;;;;8.43;2.30;;;;;;;;;;5054599;28;20026;-80
2023/04/11 00:49:54;;;;;;;9.10;1.83;;;;;;;;;;5044099;28;20056;-80
2023/04/11 00:52:20;;;;;;;10.97;1.97;;;;;;;;;;5073448;28;20014;-80
2023/04/11 00:54:47;;;;;;;8.30;2.57;;;;;;;;;;5042355;28;20034;-80
2023/04/11 00:57:13;;;;;;;8.83;1.90;;;;;;;;;;5054837;28;20026;-79
2023/04/11 00:59:40;;;;;;;9.40;2.60;;;;;;;;;;5053994;28;20022;-80
2023/04/11 01:02:06;;;;;;;10.60;1.97;;;;;;;;;;5054148;28;20056;-80
2023/04/11 01:04:33;;;;;;;10.83;2.00;;;;;;;;;;5054330;28;20077;-80
2023/04/11 01:07:05;;;;;;;10.43;1.93;;;;;;;;;;5055150;28;20023;-81
2023/04/11 01:09:32;;;;;;;14.20;2.35;;;;;;;;;;5053560;28;20029;-79
2023/04/11 01:12:00;;;;;;;15.30;2.43;;;;;;;;;;5039563;28;20033;-82
2023/04/11 01:14:26;;;;;;;14.83;2.33;;;;;;;;;;5056036;28;20055;-79
2023/04/11 01:16:55;;;;;;;12.47;2.60;;;;;;;;;;5052827;28;20029;-80
2023/04/11 01:19:21;;;;;;;12.70;2.90;;;;;;;;;;5053994;28;20055;-80
2023/04/11 01:21:49;;;;;;;11.40;2.30;;;;;;;;;;5054296;28;20017;-79
2023/04/11 01:24:18;;;;;;;15.30;2.40;;;;;;;;;;5054830;28;20018;-78
2023/04/11 01:26:47;;;;;;;10.07;2.50;;;;;;;;;;5053722;28;20036;-81
2023/04/11 01:29:13;;;;;;;15.37;2.77;;;;;;;;;;5053870;28;20037;-79
2023/04/11 01:31:41;;;;;;;15.10;1.93;;;;;;;;;;5056038;28;20044;-80
2023/04/11 01:34:11;;;;;;;13.40;2.40;;;;;;;;;;5053414;28;20025;-81
2023/04/11 01:36:40;;;;;;;14.53;2.57;;;;;;;;;;5053867;28;20012;-81
2023/04/11 01:39:08;;;;;;;12.57;2.33;;;;;;;;;;5054580;28;20033;-81
2023/04/11 01:41:38;;;;;;;11.50;2.47;;;;;;;;;;5054327;28;20040;-81
2023/04/11 01:44:04;;;;;;;16.87;2.83;;;;;;;;;;5053527;28;20036;-80
2023/04/11 01:46:31;;;;;;;15.63;3.07;;;;;;;;;;5055349;28;20021;-81
2023/04/11 01:49:00;;;;;;;17.67;4.03;;;;;;;;;;5054792;28;20048;-80
2023/04/11 01:51:26;;;;;;;24.47;2.70;;;;;;;;;;5055871;28;20021;-84
2023/04/11 01:53:52;;;;;;;20.10;2.93;;;;;;;;;;5055263;28;20183;-82
2023/04/11 01:56:18;;;;;;;17.73;3.20;;;;;;;;;;5054199;28;20041;-81
2023/04/11 01:58:44;;;;;;;22.20;3.37;;;;;;;;;;5055052;28;20036;-81
2023/04/11 02:01:13;;;;;;;17.67;2.87;;;;;;;;;;5054907;28;20079;-80
2023/04/11 02:03:41;;;;;;;20.43;3.57;;;;;;;;;;5040307;28;20045;-81
2023/04/11 02:06:07;;;;;;;20.73;3.30;;;;;;;;;;5054314;28;20047;-81
2023/04/11 02:08:33;;;;;;;22.90;3.83;;;;;;;;;;5054815;28;20113;-82
2023/04/11 02:10:59;;;;;;;31.33;4.00;;;;;;;;;;5055117;28;20084;-81
2023/04/11 02:13:25;;;;;;;18.73;3.93;;;;;;;;;;5043676;28;20037;-80
2023/04/11 02:15:51;;;;;;;22.70;3.73;;;;;;;;;;5058368;28;20049;-81
2023/04/11 02:18:17;;;;;;;24.40;3.53;;;;;;;;;;5055601;28;20021;-80
2023/04/11 02:20:43;;;;;;;18.93;3.47;;;;;;;;;;5055637;28;20033;-81
2023/04/11 02:23:13;;;;;;;19.83;3.37;;;;;;;;;;5056513;28;20033;-82
2023/04/11 02:25:42;;;;;;;16.50;3.30;;;;;;;;;;5055995;28;20075;-81
2023/04/11 02:28:08;;;;;;;18.77;3.70;;;;;;;;;;5057654;28;20037;-80
2023/04/11 02:30:36;;;;;;;21.63;3.70;;;;;;;;;;5043684;28;20030;-81
2023/04/11 02:33:05;;;;;;;28.77;4.53;;;;;;;;;;5057611;28;20005;-82
2023/04/11 02:35:32;;;;;;;23.00;4.83;;;;;;;;;;5055482;28;20025;-83
2023/04/11 02:37:58;;;;;;;19.60;3.63;;;;;;;;;;5057327;28;20013;-81
2023/04/11 02:40:24;;;;;;;22.40;3.73;;;;;;;;;;5056245;28;20053;-82
2023/04/11 02:42:52;;;;;;;22.97;3.97;;;;;;;;;;5056796;28;20021;-81
2023/04/11 02:45:21;;;;;;;22.67;3.97;;;;;;;;;;5042880;28;20032;-83
2023/04/11 02:47:47;;;;;;;22.57;4.10;;;;;;;;;;5056273;28;20071;-82
2023/04/11 02:50:13;;;;;;;17.07;3.50;;;;;;;;;;5056202;28;20276;-82
2023/04/11 02:52:41;;;;;;;19.63;3.77;;;;;;;;;;5055486;28;20033;-80
2023/04/11 02:55:08;;;;;;;22.07;4.43;;;;;;;;;;5042096;28;20021;-82
2023/04/11 02:57:34;;;;;;;21.27;3.87;;;;;;;;;;5056735;28;20049;-81
2023/04/11 03:00:00;;;;;;;26.87;3.20;;;;;;;;;;5055639;28;20033;-80
2023/04/11 03:02:32;;;;;;;19.30;4.27;;;;;;;;;;5041406;28;20069;-81
2023/04/11 03:05:02;;;;;;;28.13;4.83;;;;;;;;;;5057331;28;20033;-80
2023/04/11 03:07:28;;;;;;;15.67;3.97;;;;;;;;;;5056005;28;20029;-83
2023/04/11 03:09:55;;;;;;;27.43;4.23;;;;;;;;;;5055097;28;20034;-80
2023/04/11 03:12:21;;;;;;;31.50;3.33;;;;;;;;;;5057740;28;20033;-81
2023/04/11 03:14:47;;;;;;;26.57;4.53;;;;;;;;;;5055258;28;20048;-81
2023/04/11 03:17:13;;;;;;;24.13;4.07;;;;;;;;;;5056724;28;20021;-80
2023/04/11 03:19:39;;;;;;;19.17;3.60;;;;;;;;;;5055554;28;20033;-80
2023/04/11 03:22:05;;;;;;;30.87;3.83;;;;;;;;;;5057489;28;20037;-80
2023/04/11 03:24:38;;;;;;;23.03;4.43;;;;;;;;;;5057076;28;20041;-80
2023/04/11 03:27:07;;;;;;;32.27;4.57;;;;;;;;;;5057151;28;20024;-80
2023/04/11 03:29:33;;;;;;;25.87;3.80;;;;;;;;;;5060113;28;20097;-82
2023/04/11 03:31:59;;;;;;;26.27;4.43;;;;;;;;;;5056300;28;20021;-83
2023/04/11 03:34:28;;;;;;;23.03;3.90;;;;;;;;;;5058361;28;20048;-82
2023/04/11 03:36:56;;;;;;;28.30;3.83;;;;;;;;;;5055280;28;20013;-82
2023/04/11 03:39:27;;;;;;;29.63;4.20;;;;;;;;;;5055705;28;20043;-81
2023/04/11 03:41:56;;;;;;;21.47;4.40;;;;;;;;;;5056682;28;20021;-80
2023/04/11 03:44:22;;;;;;;22.43;3.40;;;;;;;;;;5055381;28;20021;-81
2023/04/11 03:46:48;;;;;;;23.00;3.67;;;;;;;;;;5054309;28;20045;-81
2023/04/11 03:49:14;;;;;;;30.53;5.23;;;;;;;;;;5055460;28;20041;-80
2023/04/11 03:51:43;;;;;;;18.17;3.40;;;;;;;;;;5057231;28;20049;-82
2023/04/11 03:54:09;;;;;;;21.10;3.43;;;;;;;;;;5055499;28;20038;-81
2023/04/11 03:56:35;;;;;;;26.77;5.60;;;;;;;;;;5055147;28;20025;-80
2023/04/11 03:59:01;;;;;;;22.43;4.47;;;;;;;;;;5054412;28;20026;-81
2023/04/11 04:01:27;;;;;;;22.07;3.63;;;;;;;;;;5055862;28;20097;-82
2023/04/11 04:03:53;;;;;;;34.70;4.63;;;;;;;;;;5053690;28;20029;-82
2023/04/11 04:06:21;;;;;;;26.83;4.70;;;;;;;;;;5056661;28;20093;-81
2023/04/11 04:08:47;;;;;;;22.40;3.70;;;;;;;;;;5053994;28;20036;-81
2023/04/11 04:11:13;;;;;;;25.73;3.30;;;;;;;;;;5041022;28;20037;-81
2023/04/11 04:13:39;;;;;;;29.10;4.57;;;;;;;;;;5041195;28;20021;-82
2023/04/11 04:16:05;;;;;;;17.27;3.33;;;;;;;;;;5041672;28;20029;-81
2023/04/11 04:18:31;;;;;;;25.80;4.57;;;;;;;;;;5055540;28;20620;-81
2023/04/11 04:20:57;;;;;;;22.33;3.83;;;;;;;;;;5054825;28;20036;-81
2023/04/11 04:23:25;;;;;;;30.80;4.20;;;;;;;;;;5055987;28;20014;-84
2023/04/11 04:25:56;;;;;;;20.33;3.80;;;;;;;;;;5055778;28;20085;-82
2023/04/11 04:28:27;;;;;;;23.20;4.27;;;;;;;;;;5057573;28;20017;-84
2023/04/11 04:30:56;;;;;;;30.50;4.77;;;;;;;;;;5055231;28;20041;-82
2023/04/11 04:33:26;;;;;;;23.20;3.83;;;;;;;;;;5053722;28;20024;-82
2023/04/11 04:35:58;;;;;;;23.33;4.27;;;;;;;;;;5052424;28;20021;-81
2023/04/11 04:38:27;;;;;;;36.70;4.40;;;;;;;;;;5041828;28;20032;-83
2023/04/11 04:40:56;;;;;;;18.63;2.67;;;;;;;;;;5052064;28;20041;-82
2023/04/11 04:43:23;;;;;;;22.03;3.90;;;;;;;;;;5053658;28;20032;-85
2023/04/11 04:45:49;;;;;;;19.40;3.03;;;;;;;;;;5052689;28;20033;-86
2023/04/11 04:48:18;;;;;;;20.90;3.33;;;;;;;;;;5054525;28;20033;-81
2023/04/11 04:50:44;;;;;;;16.67;3.47;;;;;;;;;;5052815;28;20077;-86
2023/04/11 04:53:10;;;;;;;17.53;3.07;;;;;;;;;;5040145;28;20857;-83
2023/04/11 04:55:37;;;;;;;19.97;3.17;;;;;;;;;;5053572;28;20029;-85
2023/04/11 04:58:03;;;;;;;18.37;3.77;;;;;;;;;;5037286;28;20016;-83
2023/04/11 05:00:29;;;;;;;21.63;3.20;;;;;;;;;;5050439;28;20044;-86
2023/04/11 05:02:55;;;;;;;19.40;3.60;;;;;;;;;;5052419;28;20040;-84
2023/04/11 05:05:21;;;;;;;16.50;3.57;;;;;;;;;;5051638;28;20048;-85
2023/04/11 05:07:50;;;;;;;22.33;3.57;;;;;;;;;;5053339;28;20036;-84
2023/04/11 05:10:16;;;;;;;17.90;3.73;;;;;;;;;;5038769;28;20025;-85
2023/04/11 05:12:42;;;;;;;22.00;4.43;;;;;;;;;;5049711;28;20040;-86
2023/04/11 05:15:10;;;;;;;21.47;4.20;;;;;;;;;;5037536;28;20040;-85
2023/04/11 05:17:37;;;;;;;24.40;4.57;;;;;;;;;;5040832;28;20028;-85
2023/04/11 05:20:06;;;;;;;23.07;3.87;;;;;;;;;;5051355;28;20097;-82
2023/04/11 05:22:36;;;;;;;29.07;4.40;;;;;;;;;;5053143;28;20032;-83
2023/04/11 05:25:03;;;;;;;23.57;3.80;;;;;;;;;;5051968;28;20040;-86
2023/04/11 05:27:29;;;;;;;24.80;4.00;;;;;;;;;;5052806;28;20029;-84
2023/04/11 05:30:00;;;;;;;26.70;5.23;;;;;;;;;;5038868;28;20033;-84
2023/04/11 05:32:26;;;;;;;24.47;3.53;;;;;;;;;;5054207;28;20040;-84
2023/04/11 05:35:09;;;;;;;25.67;3.80;;;;;;;;;;5052088;28;20048;-83
2023/04/11 05:37:36;;;;;;;13.43;2.85;;;;;;;;;;5049297;28;20156;-83
2023/04/11 05:40:02;;;;;;;22.13;3.93;;;;;;;;;;5051375;28;20040;-83
2023/04/11 05:42:28;;;;;;;21.57;3.50;;;;;;;;;;5049349;28;20120;-84
2023/04/11 05:44:56;;;;;;;24.90;4.23;;;;;;;;;;5037764;28;20068;-86
2023/04/11 05:47:31;;;;;;;17.60;3.57;;;;;;;;;;5047703;28;20037;-83
2023/04/11 05:49:57;;;;;;;24.53;4.53;;;;;;;;;;5050016;28;20040;-85
2023/04/11 05:52:26;;;;;;;14.37;2.80;;;;;;;;;;5050978;28;20028;-85
2023/04/11 05:54:53;;;;;;;18.53;3.13;;;;;;;;;;5050127;28;20044;-85
2023/04/11 06:00:24;;;;;;;23.00;4.17;;;;;;;;;;5229145;22;20117;-82
2023/04/11 06:03:31;;;;;;;20.03;3.70;;;;;;;;;;5069612;28;20021;-83
2023/04/11 06:05:57;;;;;;;19.87;3.63;;;;;;;;;;5025169;28;20030;-83
2023/04/11 06:11:01;;;;;;;14.43;2.20;;;;;;;;;;5024139;28;20118;-84
2023/04/11 06:13:30;;;;;;;12.13;3.40;;;;;;;;;;5024759;28;20038;-85
2023/04/11 06:16:05;;;;;;;18.20;3.23;;;;;;;;;;5028313;28;20026;-82
2023/04/11 06:18:40;;;;;;;16.33;2.80;;;;;;;;;;5028563;28;20072;-82
2023/04/11 06:23:34;;;;;;;15.30;3.60;;;;;;;;;;5022335;28;20053;-83
2023/04/11 06:26:03;;;;;;;15.20;3.60;;;;;;;;;;5025515;28;20078;-85
2023/04/11 06:28:31;;;;;;;21.23;3.97;;;;;;;;;;5034239;28;20323;-81
2023/04/11 06:30:57;;;;;;;20.30;3.13;;;;;;;;;;5018121;28;20025;-82
2023/04/11 06:33:26;;;;;;;15.93;3.80;;;;;;;;;;5024429;28;20088;-81
2023/04/11 06:35:52;;;;;;;18.57;3.90;;;;;;;;;;5015875;28;20076;-80
2023/04/11 06:38:18;;;;;;;23.20;3.33;;;;;;;;;;5032117;28;20042;-83
2023/04/11 06:40:44;;;;;;;14.90;3.37;;;;;;;;;;5018037;28;20034;-81
2023/04/11 06:43:10;;;;;;;22.97;3.40;;;;;;;;;;5019861;28;20065;-81
2023/04/11 06:45:36;;;;;;;19.77;3.87;;;;;;;;;;5017985;28;20091;-81
2023/04/11 06:48:02;;;;;;;19.63;3.17;;;;;;;;;;5017068;28;20040;-82
2023/04/11 06:50:28;;;;;;;16.53;4.03;;;;;;;;;;5019997;28;20454;-80
2023/04/11 06:52:57;;;;;;;14.57;3.37;;;;;;;;;;5019270;28;20030;-83
2023/04/11 06:55:23;;;;;;;19.37;3.00;;;;;;;;;;5023766;28;20030;-81
2023/04/11 06:57:49;;;;;;;17.80;2.93;;;;;;;;;;5030202;28;20064;-81
2023/04/11 07:00:15;;;;;;;19.57;3.47;;;;;;;;;;5023005;28;20030;-83
2023/04/11 07:02:43;;;;;;;19.87;3.47;;;;;;;;;;5016876;28;20038;-82
2023/04/11 07:05:09;;;;;;;14.47;2.60;;;;;;;;;;5038532;28;20038;-83
2023/04/11 07:07:36;;;;;;;15.27;3.47;;;;;;;;;;5017483;28;20034;-80
2023/04/11 07:10:05;;;;;;;19.83;2.93;;;;;;;;;;5022358;28;20040;-80
2023/04/11 07:12:31;;;;;;;15.07;2.80;;;;;;;;;;5036012;28;20030;-84
2023/04/11 07:14:57;;;;;;;17.27;3.37;;;;;;;;;;5023658;28;20045;-82
2023/04/11 07:17:23;;;;;;;16.73;2.90;;;;;;;;;;5022739;28;20026;-80
2023/04/11 07:19:49;;;;;;;16.07;3.80;;;;;;;;;;5022334;28;20097;-81
2023/04/11 07:22:15;;;;;;;19.50;3.10;;;;;;;;;;5023202;28;20064;-80
2023/04/11 07:24:42;;;;;;;15.83;4.20;;;;;;;;;;5026439;28;20038;-81
2023/04/11 07:27:10;;;;;;;14.07;2.87;;;;;;;;;;5029600;28;20030;-81
2023/04/11 07:29:36;;;;;;;13.53;3.10;;;;;;;;;;5017365;28;20029;-81
2023/04/11 07:32:02;;;;;;;17.60;2.67;;;;;;;;;;5015852;28;20037;-81
2023/04/11 07:34:28;;;;;;;13.67;3.13;;;;;;;;;;5018009;28;20034;-82
2023/04/11 07:37:00;;;;;;;17.83;3.70;;;;;;;;;;5022625;28;20034;-80
2023/04/11 07:39:26;;;;;;;17.63;3.37;;;;;;;;;;5029048;28;20078;-82
2023/04/11 07:41:55;;;;;;;9.77;2.13;;;;;;;;;;5024248;28;20042;-83
2023/04/11 07:44:22;;;;;;;12.50;2.90;;;;;;;;;;5029421;28;20026;-81
2023/04/11 07:46:55;;;;;;;14.43;2.70;;;;;;;;;;5026732;28;20072;-83
2023/04/11 07:49:21;;;;;;;11.87;2.83;;;;;;;;;;5025971;28;20042;-85
2023/04/11 07:51:47;;;;;;;14.60;1.93;;;;;;;;;;5032258;28;20028;-83
2023/04/11 07:54:13;;;;;;;21.63;3.43;;;;;;;;;;5029374;28;20026;-80
2023/04/11 07:56:39;;;;;;;12.90;2.70;;;;;;;;;;5024197;28;20052;-80
2023/04/11 07:59:05;;;;;;;8.70;2.23;;;;;;;;;;5024371;28;20050;-81
2023/04/11 08:01:31;;;;;;;17.80;2.63;;;;;;;;;;5037014;28;20438;-82
2023/04/11 08:03:57;;;;;;;13.77;2.60;;;;;;;;;;5022583;28;20018;-82
2023/04/11 08:06:23;;;;;;;13.17;2.70;;;;;;;;;;5031117;28;20022;-82
2023/04/11 08:08:50;;;;;;;19.10;3.07;;;;;;;;;;5021903;28;20089;-81
2023/04/11 08:11:16;;;;;;;15.67;3.37;;;;;;;;;;5039342;28;20041;-82
2023/04/11 08:13:42;;;;;;;16.87;3.07;;;;;;;;;;5022537;28;20030;-83
2023/04/11 08:16:09;;;;;;;12.07;2.47;;;;;;;;;;5024189;28;20073;-82
2023/04/11 08:18:36;;;;;;;10.93;2.17;;;;;;;;;;5022934;28;20053;-82
2023/04/11 08:21:02;;;;;;;5.97;1.63;;;;;;;;;;5017498;28;20026;-81
2023/04/11 08:23:28;;;;;;;9.67;1.60;;;;;;;;;;5020059;28;20072;-80
2023/04/11 08:25:57;;;;;;;11.23;2.03;;;;;;;;;;5023130;28;20065;-81
2023/04/11 08:28:24;;;;;;;12.07;1.93;;;;;;;;;;5020140;28;20971;-81
2023/04/11 08:30:54;;;;;;;7.90;1.70;;;;;;;;;;5024491;28;20436;-82
2023/04/11 08:33:23;;;;;;;13.33;2.13;;;;;;;;;;5021530;28;20035;-82
2023/04/11 08:35:49;;;;;;;9.70;1.90;;;;;;;;;;5024916;28;20022;-78
2023/04/11 08:38:17;;;;;;;18.40;2.10;;;;;;;;;;5023890;28;20033;-81
2023/04/11 08:40:44;;;;;;;12.57;1.83;;;;;;;;;;5022784;28;20072;-81
2023/04/11 08:43:13;;;;;;;10.93;1.77;;;;;;;;;;5018765;28;20030;-83
2023/04/11 08:45:39;;;;;;;14.53;1.87;;;;;;;;;;5025303;28;20045;-82
2023/04/11 08:48:06;;;;;;;9.30;1.70;;;;;;;;;;5035577;28;20030;-81
2023/04/11 08:50:33;;;;;;;8.80;1.40;;;;;;;;;;5028904;28;20037;-79
2023/04/11 08:53:01;;;;;;;11.97;2.03;;;;;;;;;;5034379;28;20094;-85
2023/04/11 08:55:27;;;;;;;10.93;2.27;;;;;;;;;;5027142;28;20034;-81
2023/04/11 08:57:57;;;;;;;11.63;2.40;;;;;;;;;;5039614;28;20037;-82
2023/04/11 09:00:24;;;;;;;10.00;1.70;;;;;;;;;;5023038;28;20052;-81
2023/04/11 09:02:57;;;;;;;12.40;2.33;;;;;;;;;;5040434;28;20036;-80
2023/04/11 09:05:24;;;;;;;9.13;1.97;;;;;;;;;;5034843;28;20060;-80
2023/04/11 09:07:50;;;;;;;24.80;2.40;;;;;;;;;;5022792;28;20026;-83
2023/04/11 09:10:20;;;;;;;9.63;2.20;;;;;;;;;;5022835;28;20033;-80
2023/04/11 09:12:46;;;;;;;11.90;2.27;;;;;;;;;;5038853;28;20089;-79
2023/04/11 09:15:25;;;;;;;11.23;1.77;;;;;;;;;;5023515;28;20033;-82
2023/04/11 09:17:51;;;;;;;17.97;2.10;;;;;;;;;;5023857;28;20038;-80
2023/04/11 09:20:24;;;;;;;11.97;2.37;;;;;;;;;;5025135;28;20064;-79
2023/04/11 09:22:51;;;;;;;15.23;2.30;;;;;;;;;;5025936;28;20041;-78
2023/04/11 09:25:21;;;;;;;10.90;1.53;;;;;;;;;;5040668;28;20030;-78
2023/04/11 09:27:47;;;;;;;7.07;2.30;;;;;;;;;;5032587;28;20022;-81
2023/04/11 09:30:18;;;;;;;11.60;2.03;;;;;;;;;;5024440;28;20033;-79
2023/04/11 09:32:47;;;;;;;12.40;1.40;;;;;;;;;;5021230;28;20017;-81
2023/04/11 09:35:14;;;;;;;15.57;2.07;;;;;;;;;;5019486;28;20086;-81
2023/04/11 09:38:03;;;;;;;11.47;1.53;;;;;;;;;;5038504;28;20091;-81
2023/04/11 09:40:30;;;;;;;13.07;1.67;;;;;;;;;;5021937;28;20081;-79
2023/04/11 09:42:57;;;;;;;15.33;1.93;;;;;;;;;;5020974;28;20033;-82
2023/04/11 09:45:26;;;;;;;7.50;1.30;;;;;;;;;;5032963;28;20090;-81
2023/04/11 09:48:02;;;;;;;14.10;1.67;;;;;;;;;;5032956;28;20034;-79
2023/04/11 09:50:33;;;;;;;5.90;1.60;;;;;;;;;;5022504;28;20136;-83
2023/04/11 09:52:59;;;;;;;7.63;1.50;;;;;;;;;;5022419;28;20030;-79
2023/04/11 09:55:25;;;;;;;12.53;1.60;;;;;;;;;;5022682;28;20041;-81
2023/04/11 09:57:53;;;;;;;10.57;1.57;;;;;;;;;;5021267;28;20104;-80
2023/04/11 10:00:20;;;;;;;6.50;1.63;;;;;;;;;;5038075;28;20027;-81
2023/04/11 10:02:51;;;;;;;9.27;1.83;;;;;;;;;;5021435;28;20076;-79
2023/04/11 10:05:18;;;;;;;6.77;1.20;;;;;;;;;;5022324;28;20018;-79
2023/04/11 10:07:55;;;;;;;11.73;2.17;;;;;;;;;;5027215;28;20026;-80
2023/04/11 10:10:22;;;;;;;5.90;1.47;;;;;;;;;;5023044;28;20117;-79
2023/04/11 10:12:49;;;;;;;10.90;1.20;;;;;;;;;;5022786;28;20022;-80
2023/04/11 10:15:16;;;;;;;9.13;1.40;;;;;;;;;;5034743;28;20022;-80
2023/04/11 10:17:43;;;;;;;6.87;1.50;;;;;;;;;;5024439;28;20025;-80
2023/04/11 10:20:32;;;;;;;13.27;2.33;;;;;;;;;;5028335;28;20058;-81
2023/04/11 10:22:59;;;;;;;11.53;2.10;;;;;;;;;;5011761;28;20054;-78
2023/04/11 10:25:26;;;;;;;10.13;1.93;;;;;;;;;;5022337;28;20057;-79
2023/04/11 10:27:59;;;;;;;7.50;1.33;;;;;;;;;;5029722;28;20042;-81
2023/04/11 10:30:40;;;;;;;15.80;1.80;;;;;;;;;;5021660;28;20030;-82
2023/04/11 10:33:10;;;;;;;11.97;1.57;;;;;;;;;;5022347;28;20029;-81
2023/04/11 10:35:54;;;;;;;7.60;1.63;;;;;;;;;;5024337;28;20037;-81
2023/04/11 10:38:36;;;;;;;11.37;1.80;;;;;;;;;;5034268;28;20034;-80
2023/04/11 10:41:18;;;;;;;7.93;1.70;;;;;;;;;;5030098;28;20023;-79
2023/04/11 10:43:44;;;;;;;12.30;2.47;;;;;;;;;;5045684;28;20030;-80
2023/04/11 10:46:23;;;;;;;12.40;1.50;;;;;;;;;;5028328;28;20065;-79
2023/04/11 10:49:02;;;;;;;10.23;1.50;;;;;;;;;;5037130;28;21721;-81
2023/04/11 10:51:32;;;;;;;8.23;2.03;;;;;;;;;;5024826;28;20030;-79
2023/04/11 10:54:03;;;;;;;9.97;1.70;;;;;;;;;;5023483;28;20040;-78
2023/04/11 10:56:49;;;;;;;16.67;6.40;;;;;;;;;;5023304;28;20101;-82
2023/04/11 10:59:31;;;;;;;12.63;1.73;;;;;;;;;;5041704;28;20032;-81
2023/04/11 11:02:00;;;;;;;6.80;1.73;;;;;;;;;;5021546;28;20025;-79
2023/04/11 11:04:39;;;;;;;13.80;2.10;;;;;;;;;;5029363;28;20100;-78
2023/04/11 11:07:08;;;;;;;7.77;1.63;;;;;;;;;;5023715;28;20034;-81
2023/04/11 11:09:34;;;;;;;7.23;1.47;;;;;;;;;;5042110;28;20049;-80
2023/04/11 11:12:12;;;;;;;11.57;2.37;;;;;;;;;;5023959;28;20025;-79
2023/04/11 11:14:39;;;;;;;6.60;1.90;;;;;;;;;;5025930;28;20113;-80
2023/04/11 11:17:06;;;;;;;7.00;1.00;;;;;;;;;;5031941;28;20037;-80
2023/04/11 11:19:32;;;;;;;9.43;1.67;;;;;;;;;;5022984;28;20053;-82
2023/04/11 11:22:06;;;;;;;10.63;1.30;;;;;;;;;;5024649;28;20045;-82
2023/04/11 11:24:32;;;;;;;6.10;1.40;;;;;;;;;;5028886;28;20054;-80
2023/04/11 11:26:58;;;;;;;8.53;1.70;;;;;;;;;;5028069;28;20024;-79
2023/04/11 11:29:33;;;;;;;5.47;1.17;;;;;;;;;;5026585;28;20067;-78
2023/04/11 11:32:01;;;;;;;10.33;1.83;;;;;;;;;;5029651;28;20593;-79
2023/04/11 11:34:28;;;;;;;4.73;1.43;;;;;;;;;;5030590;28;20041;-80
2023/04/11 11:37:03;;;;;;;8.90;1.63;;;;;;;;;;5029735;28;20034;-79
2023/04/11 11:39:30;;;;;;;8.30;2.80;;;;;;;;;;5038502;28;20042;-80
2023/04/11 11:41:56;;;;;;;6.67;1.40;;;;;;;;;;5045938;28;20098;-78
2023/04/11 11:44:27;;;;;;;13.03;1.53;;;;;;;;;;5027429;28;20030;-81
2023/04/11 11:47:11;;;;;;;6.63;1.27;;;;;;;;;;5031092;28;20026;-79
2023/04/11 11:49:56;;;;;;;8.70;1.27;;;;;;;;;;5031464;28;20034;-80
2023/04/11 11:52:32;;;;;;;4.90;1.17;;;;;;;;;;5030505;28;20045;-80
2023/04/11 11:54:58;;;;;;;10.33;1.37;;;;;;;;;;5030823;28;20038;-81
2023/04/11 11:57:24;;;;;;;11.13;1.60;;;;;;;;;;5027232;28;20140;-81
2023/04/11 11:59:57;;;;;;;7.00;0.90;;;;;;;;;;5027138;28;20042;-80
2023/04/11 12:02:26;;;;;;;10.60;4.15;;;;;;;;;;5037886;28;20023;-79
2023/04/11 12:05:13;;;;;;;7.10;1.30;;;;;;;;;;5023639;28;20090;-80
2023/04/11 12:07:39;;;;;;;9.90;1.50;;;;;;;;;;5025513;28;20022;-79
2023/04/11 12:10:07;;;;;;;8.13;1.20;;;;;;;;;;5026931;28;20049;-80
2023/04/11 12:12:43;;;;;;;9.97;1.33;;;;;;;;;;5026386;28;20034;-79
2023/04/11 12:15:13;;;;;;;10.47;1.90;;;;;;;;;;5030296;28;20080;-79
2023/04/11 12:17:40;;;;;;;11.80;2.07;;;;;;;;;;5035937;28;20029;-79
2023/04/11 12:20:07;;;;;;;6.60;1.17;;;;;;;;;;5032927;28;20064;-79
2023/04/11 12:22:33;;;;;;;8.63;1.57;;;;;;;;;;5028630;28;20060;-80
2023/04/11 12:25:13;;;;;;;6.63;1.53;;;;;;;;;;5030266;28;20367;-79
2023/04/11 12:27:39;;;;;;;9.10;1.17;;;;;;;;;;5028965;28;20021;-79
2023/04/11 12:30:06;;;;;;;6.37;1.20;;;;;;;;;;5030726;28;20029;-79
2023/04/11 12:32:32;;;;;;;6.03;1.30;;;;;;;;;;5031274;28;20052;-80
2023/04/11 12:34:59;;;;;;;3.73;1.27;;;;;;;;;;5030363;28;20528;-80
2023/04/11 12:37:25;;;;;;;8.30;1.50;;;;;;;;;;5028431;28;20034;-79
2023/04/11 12:39:51;;;;;;;10.53;1.60;;;;;;;;;;5030007;28;20048;-82
2023/04/11 12:42:17;;;;;;;3.13;1.00;;;;;;;;;;5029355;28;20121;-81
2023/04/11 12:44:46;;;;;;;8.13;1.20;;;;;;;;;;5043205;28;20007;-80
2023/04/11 12:47:12;;;;;;;6.43;0.90;;;;;;;;;;5026095;28;20037;-80
2023/04/11 12:49:38;;;;;;;8.87;1.50;;;;;;;;;;5026233;28;20029;-79
2023/04/11 12:52:05;;;;;;;6.90;1.30;;;;;;;;;;5027284;28;20045;-81
2023/04/11 12:54:32;;;;;;;7.87;1.40;;;;;;;;;;5042950;28;20037;-79
2023/04/11 12:56:58;;;;;;;5.07;1.43;;;;;;;;;;5032810;28;20105;-80
2023/04/11 12:59:25;;;;;;;10.87;1.73;;;;;;;;;;5043889;28;20489;-79
2023/04/11 13:01:53;;;;;;;10.03;1.60;;;;;;;;;;5029613;28;20033;-79
2023/04/11 13:04:20;;;;;;;6.33;1.30;;;;;;;;;;5039907;28;20038;-79
2023/04/11 13:06:51;;;;;;;9.27;1.50;;;;;;;;;;5028104;28;20080;-82
2023/04/11 13:09:17;;;;;;;5.53;0.97;;;;;;;;;;5028209;28;20117;-80
2023/04/11 13:11:43;;;;;;;6.67;1.50;;;;;;;;;;5038163;28;20041;-79
2023/04/11 13:14:09;;;;;;;8.10;1.50;;;;;;;;;;5029437;28;20034;-81
2023/04/11 13:16:35;;;;;;;5.43;1.20;;;;;;;;;;5031246;28;20045;-79
2023/04/11 13:19:04;;;;;;;6.63;1.17;;;;;;;;;;5024771;28;20026;-78
2023/04/11 13:21:31;;;;;;;5.73;2.07;;;;;;;;;;5027286;28;20044;-80
2023/04/11 13:23:57;;;;;;;6.43;1.50;;;;;;;;;;5028837;28;20044;-79
2023/04/11 13:26:28;;;;;;;6.93;1.20;;;;;;;;;;5031068;28;20029;-80
2023/04/11 13:28:55;;;;;;;6.40;1.10;;;;;;;;;;5027326;28;20042;-78
2023/04/11 13:31:25;;;;;;;6.97;1.97;;;;;;;;;;5025591;28;20284;-79
2023/04/11 13:33:53;;;;;;;4.77;1.30;;;;;;;;;;5026282;28;20034;-80
2023/04/11 13:36:19;;;;;;;6.43;1.10;;;;;;;;;;5044596;28;20022;-78
2023/04/11 13:38:46;;;;;;;9.40;1.93;;;;;;;;;;5030197;28;20054;-79
2023/04/11 13:41:12;;;;;;;5.50;1.33;;;;;;;;;;5037799;28;20029;-80
2023/04/11 13:43:38;;;;;;;13.67;1.17;;;;;;;;;;5043074;28;20030;-79
2023/04/11 13:46:04;;;;;;;10.40;1.30;;;;;;;;;;5027051;28;20033;-79
2023/04/11 13:48:30;;;;;;;7.77;1.30;;;;;;;;;;5027132;28;20030;-79
2023/04/11 13:50:57;;;;;;;5.57;0.90;;;;;;;;;;5027027;28;20037;-79
2023/04/11 13:53:23;;;;;;;5.63;1.07;;;;;;;;;;5030767;28;20037;-80
2023/04/11 13:55:50;;;;;;;10.43;1.33;;;;;;;;;;5032768;28;20118;-81
2023/04/11 13:58:18;;;;;;;5.37;0.77;;;;;;;;;;5025487;28;20065;-80
2023/04/11 14:00:44;;;;;;;5.50;1.20;;;;;;;;;;5028612;28;20033;-79
2023/04/11 14:03:11;;;;;;;7.73;1.27;;;;;;;;;;5024908;28;20044;-78
2023/04/11 14:05:39;;;;;;;4.87;1.10;;;;;;;;;;5030644;28;20033;-79
2023/04/11 14:08:05;;;;;;;4.67;1.53;;;;;;;;;;5049109;28;20014;-79
2023/04/11 14:10:31;;;;;;;7.20;1.10;;;;;;;;;;5032131;28;20033;-78
2023/04/11 14:13:00;;;;;;;7.57;1.20;;;;;;;;;;5032634;28;20030;-80
2023/04/11 14:15:26;;;;;;;3.60;0.90;;;;;;;;;;5030378;28;20041;-79
2023/04/11 14:17:52;;;;;;;7.13;1.23;;;;;;;;;;5036882;28;20040;-79
2023/04/11 14:20:19;;;;;;;5.97;1.20;;;;;;;;;;5032626;28;20018;-78
2023/04/11 14:22:45;;;;;;;5.20;1.07;;;;;;;;;;5032402;28;20022;-79
2023/04/11 14:25:12;;;;;;;6.27;1.17;;;;;;;;;;5031310;28;20010;-79
2023/04/11 14:27:39;;;;;;;7.83;1.73;;;;;;;;;;5043393;28;20040;-77
2023/04/11 14:30:14;;;;;;;5.00;1.40;;;;;;;;;;5032715;28;20037;-78
2023/04/11 14:32:40;;;;;;;8.63;1.20;;;;;;;;;;5034930;28;20093;-79
2023/04/11 14:35:08;;;;;;;4.93;1.27;;;;;;;;;;5041765;28;20092;-79
2023/04/11 14:37:35;;;;;;;5.67;1.10;;;;;;;;;;5029684;28;20039;-79
2023/04/11 14:40:06;;;;;;;6.07;1.23;;;;;;;;;;5029525;28;20018;-79
2023/04/11 14:42:32;;;;;;;9.47;1.87;;;;;;;;;;5034218;28;20018;-79
2023/04/11 14:45:01;;;;;;;7.47;1.67;;;;;;;;;;5031350;28;20138;-78
2023/04/11 14:47:28;;;;;;;8.13;1.73;;;;;;;;;;5030713;28;20017;-78